This is the latest recevied weather packets stored in our database for station/object OK5TVR-14. If no packets are shown the sender has not sent any weather packets the latest 10 day(s).
| Time | Temp. | Humidity | Pressure | Rain* | Wind** | Luminosity | Snow |
|---|---|---|---|---|---|---|---|
| 1788597413 | 19.44° C | 64% | 1015.8 hPa | 0 mm | - | 0 W/m² | - |
| 1788596513 | 18.89° C | 66% | 1016 hPa | 0 mm | - | 0 W/m² | - |
| 1788595613 | 18.89° C | 66% | 1015.7 hPa | 0 mm | - | 0 W/m² | - |
| 1788594713 | 18.33° C | 68% | 1015.8 hPa | 0 mm | - | 0 W/m² | - |
| 1788593813 | 18.33° C | 68% | 1015.7 hPa | 0 mm | - | 0 W/m² | - |
| 1788592913 | 17.78° C | 69% | 1015.7 hPa | 0 mm | - | 0 W/m² | - |
| 1788592013 | 17.78° C | 68% | 1015.5 hPa | 0 mm | - | 0 W/m² | - |
| 1788591113 | 17.78° C | 69% | 1015.5 hPa | 0 mm | - | 0 W/m² | - |
| 1788590213 | 17.22° C | 69% | 1015.4 hPa | 0 mm | - | 0 W/m² | - |
| 1788589313 | 17.22° C | 69% | 1015.4 hPa | 0 mm | - | 0 W/m² | - |
| 1788588413 | 17.22° C | 69% | 1015.4 hPa | 0 mm | - | 0 W/m² | - |
| 1788587513 | 17.22° C | 69% | 1015.4 hPa | 0 mm | - | 0 W/m² | - |
| 1788586613 | 16.67° C | 70% | 1015.1 hPa | 0 mm | - | 0 W/m² | - |
| 1788565013 | 21.11° C | 61% | 1010.6 hPa | 0 mm | - | 0 W/m² | - |
| 1788561413 | 21.11° C | 62% | 1008.2 hPa | 0 mm | - | 0 W/m² | - |
| 1788548813 | 23.89° C | 57% | 1006.7 hPa | 0 mm | - | 0 W/m² | - |
| 1788541613 | 27.22° C | 46% | 1006.1 hPa | 0 mm | - | 0 W/m² | - |
| 1788539813 | 27.78° C | 45% | 1005.8 hPa | 0 mm | - | 0 W/m² | - |
| 1788538013 | 28.89° C | 43% | 1005.6 hPa | 0 mm | - | 0 W/m² | - |
| 1788536213 | 29.44° C | 42% | 1005.7 hPa | 0 mm | - | 0 W/m² | - |
| 1788535313 | 30° C | 41% | 1005.8 hPa | 0 mm | - | 0 W/m² | - |
| 1788534413 | 30° C | 41% | 1005.7 hPa | 0 mm | - | 0 W/m² | - |
| 1788532612 | 30° C | 40% | 1006.1 hPa | 0 mm | - | 0 W/m² | - |
| 1788531712 | 30.56° C | 40% | 1006.2 hPa | 0 mm | - | 0 W/m² | - |
| 1788530813 | 30° C | 42% | 1006.5 hPa | 0 mm | - | 0 W/m² | - |
* Rain latest hour (hover to see other rain measurements)
** Current wind speed in m/s (hover to see current wind gust speed)